sensor_id;sensor_type;location;lat;lon;timestamp;temperature;humidity
23100;DHT22;53791;50.696;4.396;2023-06-26T00:01:05;22.80;99.90
23100;DHT22;53791;50.696;4.396;2023-06-26T00:03:33;22.70;99.90
23100;DHT22;53791;50.696;4.396;2023-06-26T00:06:00;22.60;99.90
23100;DHT22;53791;50.696;4.396;2023-06-26T00:08:28;22.50;99.90
23100;DHT22;53791;50.696;4.396;2023-06-26T00:10:56;22.50;99.90
23100;DHT22;53791;50.696;4.396;2023-06-26T00:13:24;22.50;99.90
23100;DHT22;53791;50.696;4.396;2023-06-26T00:15:52;22.40;99.90
23100;DHT22;53791;50.696;4.396;2023-06-26T00:18:19;22.20;99.90
23100;DHT22;53791;50.696;4.396;2023-06-26T00:20:47;22.10;99.90
23100;DHT22;53791;50.696;4.396;2023-06-26T00:23:16;22.10;99.90
23100;DHT22;53791;50.696;4.396;2023-06-26T00:25:44;22.10;99.90
23100;DHT22;53791;50.696;4.396;2023-06-26T00:28:12;22.00;99.90
23100;DHT22;53791;50.696;4.396;2023-06-26T00:30:39;22.00;99.90
23100;DHT22;53791;50.696;4.396;2023-06-26T00:33:07;21.90;99.90
23100;DHT22;53791;50.696;4.396;2023-06-26T00:35:34;21.90;99.90
23100;DHT22;53791;50.696;4.396;2023-06-26T00:38:02;21.80;99.90
23100;DHT22;53791;50.696;4.396;2023-06-26T00:40:29;21.80;99.90
23100;DHT22;53791;50.696;4.396;2023-06-26T00:42:57;21.80;99.90
23100;DHT22;53791;50.696;4.396;2023-06-26T00:45:25;21.70;99.90
23100;DHT22;53791;50.696;4.396;2023-06-26T00:47:52;21.60;99.90
23100;DHT22;53791;50.696;4.396;2023-06-26T00:50:20;21.50;99.90
23100;DHT22;53791;50.696;4.396;2023-06-26T00:52:48;21.40;99.90
23100;DHT22;53791;50.696;4.396;2023-06-26T00:55:15;21.40;99.90
23100;DHT22;53791;50.696;4.396;2023-06-26T00:57:43;21.50;99.90
23100;DHT22;53791;50.696;4.396;2023-06-26T01:00:13;21.40;99.90
23100;DHT22;53791;50.696;4.396;2023-06-26T01:02:40;21.30;99.90
23100;DHT22;53791;50.696;4.396;2023-06-26T01:05:08;21.20;99.90
23100;DHT22;53791;50.696;4.396;2023-06-26T01:07:37;21.20;99.90
23100;DHT22;53791;50.696;4.396;2023-06-26T01:10:06;21.10;99.90
23100;DHT22;53791;50.696;4.396;2023-06-26T01:12:34;21.00;99.90
23100;DHT22;53791;50.696;4.396;2023-06-26T01:15:05;21.10;99.90
23100;DHT22;53791;50.696;4.396;2023-06-26T01:17:33;21.00;99.90
23100;DHT22;53791;50.696;4.396;2023-06-26T01:20:04;20.90;99.90
23100;DHT22;53791;50.696;4.396;2023-06-26T01:22:57;20.90;99.90
23100;DHT22;53791;50.696;4.396;2023-06-26T01:25:41;20.80;99.90
23100;DHT22;53791;50.696;4.396;2023-06-26T01:28:10;20.70;99.90
23100;DHT22;53791;50.696;4.396;2023-06-26T01:30:42;20.60;99.90
23100;DHT22;53791;50.696;4.396;2023-06-26T01:33:09;20.60;99.90
23100;DHT22;53791;50.696;4.396;2023-06-26T01:35:37;20.60;99.90
23100;DHT22;53791;50.696;4.396;2023-06-26T01:38:16;20.50;99.90
23100;DHT22;53791;50.696;4.396;2023-06-26T01:40:44;20.40;99.90
23100;DHT22;53791;50.696;4.396;2023-06-26T01:46:11;20.30;99.90
23100;DHT22;53791;50.696;4.396;2023-06-26T01:48:45;20.30;99.90
23100;DHT22;53791;50.696;4.396;2023-06-26T01:51:08;20.30;99.90
23100;DHT22;53791;50.696;4.396;2023-06-26T01:53:38;20.20;99.90
23100;DHT22;53791;50.696;4.396;2023-06-26T01:56:11;20.30;99.90
23100;DHT22;53791;50.696;4.396;2023-06-26T01:58:43;20.30;99.90
23100;DHT22;53791;50.696;4.396;2023-06-26T02:01:12;20.20;99.90
23100;DHT22;53791;50.696;4.396;2023-06-26T02:03:39;20.20;99.90
23100;DHT22;53791;50.696;4.396;2023-06-26T02:06:07;19.90;99.90
23100;DHT22;53791;50.696;4.396;2023-06-26T02:08:35;20.00;99.90
23100;DHT22;53791;50.696;4.396;2023-06-26T02:11:03;20.00;99.90
23100;DHT22;53791;50.696;4.396;2023-06-26T02:13:30;20.10;99.90
23100;DHT22;53791;50.696;4.396;2023-06-26T02:15:58;20.10;99.90
23100;DHT22;53791;50.696;4.396;2023-06-26T02:18:25;20.10;99.90
23100;DHT22;53791;50.696;4.396;2023-06-26T02:20:53;20.10;99.90
23100;DHT22;53791;50.696;4.396;2023-06-26T02:23:20;20.00;99.90
23100;DHT22;53791;50.696;4.396;2023-06-26T02:25:48;19.90;99.90
23100;DHT22;53791;50.696;4.396;2023-06-26T02:28:15;20.00;99.90
23100;DHT22;53791;50.696;4.396;2023-06-26T02:30:43;19.90;99.90
23100;DHT22;53791;50.696;4.396;2023-06-26T02:33:10;19.90;99.90
23100;DHT22;53791;50.696;4.396;2023-06-26T02:35:38;19.90;99.90
23100;DHT22;53791;50.696;4.396;2023-06-26T02:38:05;19.80;99.90
23100;DHT22;53791;50.696;4.396;2023-06-26T02:40:33;19.80;99.90
23100;DHT22;53791;50.696;4.396;2023-06-26T02:43:00;19.70;99.90
23100;DHT22;53791;50.696;4.396;2023-06-26T02:45:28;19.70;99.90
23100;DHT22;53791;50.696;4.396;2023-06-26T02:47:55;19.70;99.90
23100;DHT22;53791;50.696;4.396;2023-06-26T02:50:23;19.70;99.90
23100;DHT22;53791;50.696;4.396;2023-06-26T02:52:50;19.70;99.90
23100;DHT22;53791;50.696;4.396;2023-06-26T02:55:19;19.70;99.90
23100;DHT22;53791;50.696;4.396;2023-06-26T02:57:47;19.70;99.90
23100;DHT22;53791;50.696;4.396;2023-06-26T03:00:15;19.70;99.90
23100;DHT22;53791;50.696;4.396;2023-06-26T03:02:42;19.60;99.90
23100;DHT22;53791;50.696;4.396;2023-06-26T03:05:10;19.60;99.90
23100;DHT22;53791;50.696;4.396;2023-06-26T03:07:39;19.60;99.90
23100;DHT22;53791;50.696;4.396;2023-06-26T03:10:07;19.60;99.90
23100;DHT22;53791;50.696;4.396;2023-06-26T03:12:35;19.50;99.90
23100;DHT22;53791;50.696;4.396;2023-06-26T03:15:02;19.50;99.90
23100;DHT22;53791;50.696;4.396;2023-06-26T03:17:30;19.50;99.90
23100;DHT22;53791;50.696;4.396;2023-06-26T03:19:57;19.40;99.90
23100;DHT22;53791;50.696;4.396;2023-06-26T03:22:26;19.40;99.90
23100;DHT22;53791;50.696;4.396;2023-06-26T03:24:54;19.40;99.90
23100;DHT22;53791;50.696;4.396;2023-06-26T03:27:22;19.30;99.90
23100;DHT22;53791;50.696;4.396;2023-06-26T03:29:49;19.30;99.90
23100;DHT22;53791;50.696;4.396;2023-06-26T03:32:17;19.20;99.90
23100;DHT22;53791;50.696;4.396;2023-06-26T03:34:44;19.20;99.90
23100;DHT22;53791;50.696;4.396;2023-06-26T03:37:12;19.20;99.90
23100;DHT22;53791;50.696;4.396;2023-06-26T03:39:40;19.20;99.90
23100;DHT22;53791;50.696;4.396;2023-06-26T03:42:07;19.10;99.90
23100;DHT22;53791;50.696;4.396;2023-06-26T03:44:35;19.00;99.90
23100;DHT22;53791;50.696;4.396;2023-06-26T03:47:02;19.00;99.90
23100;DHT22;53791;50.696;4.396;2023-06-26T03:49:30;19.00;99.90
23100;DHT22;53791;50.696;4.396;2023-06-26T03:51:57;19.00;99.90
23100;DHT22;53791;50.696;4.396;2023-06-26T03:54:25;18.90;99.90
23100;DHT22;53791;50.696;4.396;2023-06-26T03:56:52;18.90;99.90
23100;DHT22;53791;50.696;4.396;2023-06-26T03:59:20;18.80;99.90
23100;DHT22;53791;50.696;4.396;2023-06-26T04:01:47;18.70;99.90
23100;DHT22;53791;50.696;4.396;2023-06-26T04:04:15;18.80;99.90
23100;DHT22;53791;50.696;4.396;2023-06-26T04:06:42;18.60;99.90
23100;DHT22;53791;50.696;4.396;2023-06-26T04:09:10;18.60;99.90
23100;DHT22;53791;50.696;4.396;2023-06-26T04:11:37;18.60;99.90
23100;DHT22;53791;50.696;4.396;2023-06-26T04:14:05;18.50;99.90
23100;DHT22;53791;50.696;4.396;2023-06-26T04:16:32;18.60;99.90
23100;DHT22;53791;50.696;4.396;2023-06-26T04:19:00;18.60;99.90
23100;DHT22;53791;50.696;4.396;2023-06-26T04:21:28;18.60;99.90
23100;DHT22;53791;50.696;4.396;2023-06-26T04:23:57;18.50;99.90
23100;DHT22;53791;50.696;4.396;2023-06-26T04:26:25;18.50;99.90
23100;DHT22;53791;50.696;4.396;2023-06-26T04:28:54;18.50;99.90
23100;DHT22;53791;50.696;4.396;2023-06-26T04:31:22;18.50;99.90
23100;DHT22;53791;50.696;4.396;2023-06-26T04:33:49;18.50;99.90
23100;DHT22;53791;50.696;4.396;2023-06-26T04:36:18;18.50;99.90
23100;DHT22;53791;50.696;4.396;2023-06-26T04:38:45;18.50;99.90
23100;DHT22;53791;50.696;4.396;2023-06-26T04:41:14;18.50;99.90
23100;DHT22;53791;50.696;4.396;2023-06-26T04:43:42;18.50;99.90
23100;DHT22;53791;50.696;4.396;2023-06-26T04:46:09;18.50;99.90
23100;DHT22;53791;50.696;4.396;2023-06-26T04:48:37;18.50;99.90
23100;DHT22;53791;50.696;4.396;2023-06-26T04:51:04;18.50;99.90
23100;DHT22;53791;50.696;4.396;2023-06-26T04:53:32;18.50;99.90
23100;DHT22;53791;50.696;4.396;2023-06-26T04:55:59;18.50;99.90
23100;DHT22;53791;50.696;4.396;2023-06-26T04:58:27;18.60;99.90
23100;DHT22;53791;50.696;4.396;2023-06-26T05:00:54;18.50;99.90
23100;DHT22;53791;50.696;4.396;2023-06-26T05:03:22;18.40;99.90
23100;DHT22;53791;50.696;4.396;2023-06-26T05:05:49;18.50;99.90
23100;DHT22;53791;50.696;4.396;2023-06-26T05:08:24;18.50;99.90
23100;DHT22;53791;50.696;4.396;2023-06-26T05:10:55;18.40;99.90
23100;DHT22;53791;50.696;4.396;2023-06-26T05:13:24;18.50;99.90
23100;DHT22;53791;50.696;4.396;2023-06-26T05:15:52;18.50;99.90
23100;DHT22;53791;50.696;4.396;2023-06-26T05:18:20;18.50;99.90
23100;DHT22;53791;50.696;4.396;2023-06-26T05:20:48;18.60;99.90
23100;DHT22;53791;50.696;4.396;2023-06-26T05:23:16;18.50;99.90
23100;DHT22;53791;50.696;4.396;2023-06-26T05:25:51;18.60;99.90
23100;DHT22;53791;50.696;4.396;2023-06-26T05:28:19;18.60;99.90
23100;DHT22;53791;50.696;4.396;2023-06-26T05:30:47;18.60;99.90
23100;DHT22;53791;50.696;4.396;2023-06-26T05:33:15;18.60;99.90
23100;DHT22;53791;50.696;4.396;2023-06-26T05:35:45;18.70;99.90
23100;DHT22;53791;50.696;4.396;2023-06-26T05:38:13;18.50;99.90
23100;DHT22;53791;50.696;4.396;2023-06-26T05:40:41;18.60;99.90
23100;DHT22;53791;50.696;4.396;2023-06-26T05:43:09;18.50;99.90
23100;DHT22;53791;50.696;4.396;2023-06-26T05:45:37;18.60;99.90
23100;DHT22;53791;50.696;4.396;2023-06-26T05:48:04;18.70;99.90
23100;DHT22;53791;50.696;4.396;2023-06-26T05:50:32;18.70;99.90
23100;DHT22;53791;50.696;4.396;2023-06-26T05:53:00;18.70;99.90
23100;DHT22;53791;50.696;4.396;2023-06-26T05:55:29;18.70;99.90
23100;DHT22;53791;50.696;4.396;2023-06-26T05:57:58;18.70;99.90
23100;DHT22;53791;50.696;4.396;2023-06-26T06:00:27;18.80;99.90
23100;DHT22;53791;50.696;4.396;2023-06-26T06:02:54;18.80;99.90
23100;DHT22;53791;50.696;4.396;2023-06-26T06:05:22;18.80;99.90
23100;DHT22;53791;50.696;4.396;2023-06-26T06:07:50;18.90;99.90
23100;DHT22;53791;50.696;4.396;2023-06-26T06:10:18;18.90;99.90
23100;DHT22;53791;50.696;4.396;2023-06-26T06:12:45;19.00;99.90
23100;DHT22;53791;50.696;4.396;2023-06-26T06:15:13;18.90;99.90
23100;DHT22;53791;50.696;4.396;2023-06-26T06:17:40;19.00;99.90
23100;DHT22;53791;50.696;4.396;2023-06-26T06:20:08;19.10;99.90
23100;DHT22;53791;50.696;4.396;2023-06-26T06:22:36;19.20;99.90
23100;DHT22;53791;50.696;4.396;2023-06-26T06:25:03;19.30;99.90
23100;DHT22;53791;50.696;4.396;2023-06-26T06:27:33;19.30;99.90
23100;DHT22;53791;50.696;4.396;2023-06-26T06:30:01;19.30;99.90
23100;DHT22;53791;50.696;4.396;2023-06-26T06:32:29;19.30;99.90
23100;DHT22;53791;50.696;4.396;2023-06-26T06:34:56;19.40;99.90
23100;DHT22;53791;50.696;4.396;2023-06-26T06:37:24;19.50;99.90
23100;DHT22;53791;50.696;4.396;2023-06-26T06:39:53;19.60;99.90
23100;DHT22;53791;50.696;4.396;2023-06-26T06:42:20;19.60;99.90
23100;DHT22;53791;50.696;4.396;2023-06-26T06:44:48;19.60;99.90
23100;DHT22;53791;50.696;4.396;2023-06-26T06:47:15;19.70;99.90
23100;DHT22;53791;50.696;4.396;2023-06-26T06:49:43;19.80;99.90
23100;DHT22;53791;50.696;4.396;2023-06-26T06:52:10;19.80;99.90
23100;DHT22;53791;50.696;4.396;2023-06-26T06:54:57;19.80;99.90
23100;DHT22;53791;50.696;4.396;2023-06-26T06:57:21;19.80;99.90
23100;DHT22;53791;50.696;4.396;2023-06-26T06:59:48;20.00;99.90
23100;DHT22;53791;50.696;4.396;2023-06-26T07:02:19;19.90;99.90
23100;DHT22;53791;50.696;4.396;2023-06-26T07:04:47;20.00;99.90
23100;DHT22;53791;50.696;4.396;2023-06-26T07:07:19;20.10;99.90
23100;DHT22;53791;50.696;4.396;2023-06-26T07:09:44;20.10;99.90
23100;DHT22;53791;50.696;4.396;2023-06-26T07:12:12;20.00;99.90
23100;DHT22;53791;50.696;4.396;2023-06-26T07:14:39;20.10;99.90
23100;DHT22;53791;50.696;4.396;2023-06-26T07:17:07;20.20;99.90
23100;DHT22;53791;50.696;4.396;2023-06-26T07:19:35;20.30;99.90
23100;DHT22;53791;50.696;4.396;2023-06-26T07:22:02;20.40;99.90
23100;DHT22;53791;50.696;4.396;2023-06-26T07:24:30;20.50;99.90
23100;DHT22;53791;50.696;4.396;2023-06-26T07:26:59;20.50;99.90
23100;DHT22;53791;50.696;4.396;2023-06-26T07:29:29;20.60;99.90
23100;DHT22;53791;50.696;4.396;2023-06-26T07:31:57;20.70;99.90
23100;DHT22;53791;50.696;4.396;2023-06-26T07:34:24;20.70;99.90
23100;DHT22;53791;50.696;4.396;2023-06-26T07:36:52;20.80;99.90
23100;DHT22;53791;50.696;4.396;2023-06-26T07:39:20;20.80;99.90
23100;DHT22;53791;50.696;4.396;2023-06-26T07:41:47;20.80;99.90
23100;DHT22;53791;50.696;4.396;2023-06-26T07:44:15;20.90;99.90
23100;DHT22;53791;50.696;4.396;2023-06-26T07:46:42;20.90;99.90
23100;DHT22;53791;50.696;4.396;2023-06-26T07:49:11;20.90;99.90
23100;DHT22;53791;50.696;4.396;2023-06-26T07:51:39;20.90;99.90
23100;DHT22;53791;50.696;4.396;2023-06-26T07:54:06;21.10;99.90
23100;DHT22;53791;50.696;4.396;2023-06-26T07:56:54;21.10;99.90
23100;DHT22;53791;50.696;4.396;2023-06-26T07:59:22;21.20;99.90
23100;DHT22;53791;50.696;4.396;2023-06-26T08:01:52;21.10;99.90
23100;DHT22;53791;50.696;4.396;2023-06-26T08:04:20;21.10;99.90
23100;DHT22;53791;50.696;4.396;2023-06-26T08:06:50;21.20;99.90
23100;DHT22;53791;50.696;4.396;2023-06-26T08:09:20;21.30;99.90
23100;DHT22;53791;50.696;4.396;2023-06-26T08:11:48;21.40;99.90
23100;DHT22;53791;50.696;4.396;2023-06-26T08:14:16;21.30;99.90
23100;DHT22;53791;50.696;4.396;2023-06-26T08:16:44;21.30;99.90
23100;DHT22;53791;50.696;4.396;2023-06-26T08:19:13;21.30;99.90
23100;DHT22;53791;50.696;4.396;2023-06-26T08:21:42;21.40;99.90
23100;DHT22;53791;50.696;4.396;2023-06-26T08:24:10;21.40;99.90
23100;DHT22;53791;50.696;4.396;2023-06-26T08:26:39;21.50;99.90
23100;DHT22;53791;50.696;4.396;2023-06-26T08:29:07;21.50;99.90
23100;DHT22;53791;50.696;4.396;2023-06-26T08:31:36;21.50;99.90
23100;DHT22;53791;50.696;4.396;2023-06-26T08:34:04;21.40;99.90
23100;DHT22;53791;50.696;4.396;2023-06-26T08:36:32;21.50;99.90
23100;DHT22;53791;50.696;4.396;2023-06-26T08:38:59;21.60;99.90
23100;DHT22;53791;50.696;4.396;2023-06-26T08:41:27;21.80;99.90
23100;DHT22;53791;50.696;4.396;2023-06-26T08:43:55;21.90;99.90
23100;DHT22;53791;50.696;4.396;2023-06-26T08:46:22;22.00;99.90
23100;DHT22;53791;50.696;4.396;2023-06-26T08:48:55;22.00;99.90
23100;DHT22;53791;50.696;4.396;2023-06-26T08:51:23;22.10;99.90
23100;DHT22;53791;50.696;4.396;2023-06-26T08:53:59;22.10;99.90
23100;DHT22;53791;50.696;4.396;2023-06-26T08:56:40;22.30;99.90
23100;DHT22;53791;50.696;4.396;2023-06-26T08:59:07;22.40;99.90
23100;DHT22;53791;50.696;4.396;2023-06-26T09:01:37;22.40;99.90
23100;DHT22;53791;50.696;4.396;2023-06-26T09:04:05;22.50;99.90
23100;DHT22;53791;50.696;4.396;2023-06-26T09:06:33;22.70;99.90
23100;DHT22;53791;50.696;4.396;2023-06-26T09:09:01;22.90;99.90
23100;DHT22;53791;50.696;4.396;2023-06-26T09:11:30;23.00;99.90
23100;DHT22;53791;50.696;4.396;2023-06-26T09:13:58;22.80;99.90
23100;DHT22;53791;50.696;4.396;2023-06-26T09:16:26;22.90;99.90
23100;DHT22;53791;50.696;4.396;2023-06-26T09:18:55;23.00;99.90
23100;DHT22;53791;50.696;4.396;2023-06-26T09:21:23;23.00;99.90
23100;DHT22;53791;50.696;4.396;2023-06-26T09:23:50;22.60;99.90
23100;DHT22;53791;50.696;4.396;2023-06-26T09:26:21;22.00;99.90
23100;DHT22;53791;50.696;4.396;2023-06-26T09:28:49;21.60;99.90
23100;DHT22;53791;50.696;4.396;2023-06-26T09:31:17;21.70;99.90
23100;DHT22;53791;50.696;4.396;2023-06-26T09:33:46;22.10;99.90
23100;DHT22;53791;50.696;4.396;2023-06-26T09:36:21;22.50;99.90
23100;DHT22;53791;50.696;4.396;2023-06-26T09:38:48;22.80;99.90
23100;DHT22;53791;50.696;4.396;2023-06-26T09:41:19;23.10;99.90
23100;DHT22;53791;50.696;4.396;2023-06-26T09:43:50;23.30;99.90
23100;DHT22;53791;50.696;4.396;2023-06-26T09:46:26;23.10;99.90
23100;DHT22;53791;50.696;4.396;2023-06-26T09:49:07;22.90;99.90
23100;DHT22;53791;50.696;4.396;2023-06-26T09:51:36;22.90;99.90
23100;DHT22;53791;50.696;4.396;2023-06-26T09:54:05;22.50;99.90
23100;DHT22;53791;50.696;4.396;2023-06-26T09:56:33;22.60;99.90
23100;DHT22;53791;50.696;4.396;2023-06-26T09:59:04;22.60;99.90
23100;DHT22;53791;50.696;4.396;2023-06-26T10:01:32;22.60;99.90
23100;DHT22;53791;50.696;4.396;2023-06-26T10:04:00;22.80;99.90
23100;DHT22;53791;50.696;4.396;2023-06-26T10:06:36;22.90;99.90
23100;DHT22;53791;50.696;4.396;2023-06-26T10:09:04;23.10;99.90
23100;DHT22;53791;50.696;4.396;2023-06-26T10:11:55;23.10;99.90
23100;DHT22;53791;50.696;4.396;2023-06-26T10:14:19;23.20;99.90
23100;DHT22;53791;50.696;4.396;2023-06-26T10:16:49;23.30;99.90
23100;DHT22;53791;50.696;4.396;2023-06-26T10:19:18;23.30;99.90
23100;DHT22;53791;50.696;4.396;2023-06-26T10:21:53;23.50;99.90
23100;DHT22;53791;50.696;4.396;2023-06-26T10:24:22;23.40;99.90
23100;DHT22;53791;50.696;4.396;2023-06-26T10:26:52;23.30;99.90
23100;DHT22;53791;50.696;4.396;2023-06-26T10:29:22;23.10;99.90
23100;DHT22;53791;50.696;4.396;2023-06-26T10:31:52;23.20;99.90
23100;DHT22;53791;50.696;4.396;2023-06-26T10:34:21;23.20;99.90
23100;DHT22;53791;50.696;4.396;2023-06-26T10:37:03;23.20;99.90
23100;DHT22;53791;50.696;4.396;2023-06-26T10:39:48;23.00;99.90
23100;DHT22;53791;50.696;4.396;2023-06-26T10:42:37;22.80;99.90
23100;DHT22;53791;50.696;4.396;2023-06-26T10:45:13;22.80;99.90
23100;DHT22;53791;50.696;4.396;2023-06-26T10:47:42;22.80;99.90
23100;DHT22;53791;50.696;4.396;2023-06-26T10:50:17;22.90;99.90
23100;DHT22;53791;50.696;4.396;2023-06-26T10:52:45;23.00;99.90
23100;DHT22;53791;50.696;4.396;2023-06-26T10:55:14;23.10;99.90
23100;DHT22;53791;50.696;4.396;2023-06-26T10:57:44;23.00;99.90
23100;DHT22;53791;50.696;4.396;2023-06-26T11:00:14;22.90;99.90
23100;DHT22;53791;50.696;4.396;2023-06-26T11:02:50;23.00;99.90
23100;DHT22;53791;50.696;4.396;2023-06-26T11:05:29;22.80;99.90
23100;DHT22;53791;50.696;4.396;2023-06-26T11:08:07;22.70;99.90
23100;DHT22;53791;50.696;4.396;2023-06-26T11:10:54;22.70;99.90
23100;DHT22;53791;50.696;4.396;2023-06-26T11:13:23;22.80;99.90
23100;DHT22;53791;50.696;4.396;2023-06-26T11:15:51;22.80;99.90
23100;DHT22;53791;50.696;4.396;2023-06-26T11:18:19;22.80;99.90
23100;DHT22;53791;50.696;4.396;2023-06-26T11:20:47;23.00;99.90
23100;DHT22;53791;50.696;4.396;2023-06-26T11:23:16;23.00;99.90
23100;DHT22;53791;50.696;4.396;2023-06-26T11:25:45;23.00;99.90
23100;DHT22;53791;50.696;4.396;2023-06-26T11:28:12;22.80;99.90
23100;DHT22;53791;50.696;4.396;2023-06-26T11:30:40;22.80;99.90
23100;DHT22;53791;50.696;4.396;2023-06-26T11:33:09;22.70;99.90
23100;DHT22;53791;50.696;4.396;2023-06-26T11:35:37;22.60;99.90
23100;DHT22;53791;50.696;4.396;2023-06-26T11:38:05;22.80;99.90
23100;DHT22;53791;50.696;4.396;2023-06-26T11:40:36;22.90;99.90
23100;DHT22;53791;50.696;4.396;2023-06-26T11:43:04;23.00;99.90
23100;DHT22;53791;50.696;4.396;2023-06-26T11:45:32;23.20;99.90
23100;DHT22;53791;50.696;4.396;2023-06-26T11:48:00;23.30;99.90
23100;DHT22;53791;50.696;4.396;2023-06-26T11:50:29;23.60;99.90
23100;DHT22;53791;50.696;4.396;2023-06-26T11:52:57;23.70;99.90
23100;DHT22;53791;50.696;4.396;2023-06-26T11:55:26;23.80;99.90
23100;DHT22;53791;50.696;4.396;2023-06-26T11:57:56;23.70;99.90
23100;DHT22;53791;50.696;4.396;2023-06-26T12:00:24;23.60;99.90
23100;DHT22;53791;50.696;4.396;2023-06-26T12:02:51;23.70;99.90
23100;DHT22;53791;50.696;4.396;2023-06-26T12:05:20;23.70;99.90
23100;DHT22;53791;50.696;4.396;2023-06-26T12:07:49;23.70;99.90
23100;DHT22;53791;50.696;4.396;2023-06-26T12:10:17;23.80;99.90
23100;DHT22;53791;50.696;4.396;2023-06-26T12:12:46;23.80;99.90
23100;DHT22;53791;50.696;4.396;2023-06-26T12:15:15;23.90;99.90
23100;DHT22;53791;50.696;4.396;2023-06-26T12:17:43;24.00;99.90
23100;DHT22;53791;50.696;4.396;2023-06-26T12:20:21;24.10;99.90
23100;DHT22;53791;50.696;4.396;2023-06-26T12:22:49;24.20;99.90
23100;DHT22;53791;50.696;4.396;2023-06-26T12:25:22;24.10;99.90
23100;DHT22;53791;50.696;4.396;2023-06-26T12:27:50;24.00;99.90
23100;DHT22;53791;50.696;4.396;2023-06-26T12:30:17;23.90;99.90
23100;DHT22;53791;50.696;4.396;2023-06-26T12:32:46;23.70;99.90
23100;DHT22;53791;50.696;4.396;2023-06-26T12:35:13;23.40;99.90
23100;DHT22;53791;50.696;4.396;2023-06-26T12:37:42;23.20;99.90
23100;DHT22;53791;50.696;4.396;2023-06-26T12:40:20;23.10;99.90
23100;DHT22;53791;50.696;4.396;2023-06-26T12:42:49;23.00;99.90
23100;DHT22;53791;50.696;4.396;2023-06-26T12:45:16;23.00;99.90
23100;DHT22;53791;50.696;4.396;2023-06-26T12:47:44;23.20;99.90
23100;DHT22;53791;50.696;4.396;2023-06-26T12:50:12;23.50;99.90
23100;DHT22;53791;50.696;4.396;2023-06-26T12:52:40;23.90;99.90
23100;DHT22;53791;50.696;4.396;2023-06-26T12:55:07;24.10;99.90
23100;DHT22;53791;50.696;4.396;2023-06-26T12:57:35;24.20;99.90
23100;DHT22;53791;50.696;4.396;2023-06-26T13:00:03;24.20;99.90
23100;DHT22;53791;50.696;4.396;2023-06-26T13:02:31;23.90;99.90
23100;DHT22;53791;50.696;4.396;2023-06-26T13:04:59;23.80;99.90
23100;DHT22;53791;50.696;4.396;2023-06-26T13:07:26;23.90;99.90
23100;DHT22;53791;50.696;4.396;2023-06-26T13:09:54;24.00;99.90
23100;DHT22;53791;50.696;4.396;2023-06-26T13:12:22;23.80;99.90
23100;DHT22;53791;50.696;4.396;2023-06-26T13:14:49;23.60;99.90
23100;DHT22;53791;50.696;4.396;2023-06-26T13:17:17;23.50;99.90
23100;DHT22;53791;50.696;4.396;2023-06-26T13:19:45;23.60;99.90
23100;DHT22;53791;50.696;4.396;2023-06-26T13:22:12;23.60;99.90
23100;DHT22;53791;50.696;4.396;2023-06-26T13:24:40;23.80;99.90
23100;DHT22;53791;50.696;4.396;2023-06-26T13:27:08;23.50;99.90
23100;DHT22;53791;50.696;4.396;2023-06-26T13:29:35;23.60;99.90
23100;DHT22;53791;50.696;4.396;2023-06-26T13:32:03;23.80;99.90
23100;DHT22;53791;50.696;4.396;2023-06-26T13:34:30;23.80;99.90
23100;DHT22;53791;50.696;4.396;2023-06-26T13:36:58;23.90;99.90
23100;DHT22;53791;50.696;4.396;2023-06-26T13:39:27;23.90;99.90
23100;DHT22;53791;50.696;4.396;2023-06-26T13:41:57;23.80;99.90
23100;DHT22;53791;50.696;4.396;2023-06-26T13:44:24;23.90;99.90
23100;DHT22;53791;50.696;4.396;2023-06-26T13:46:52;24.20;99.90
23100;DHT22;53791;50.696;4.396;2023-06-26T13:49:20;24.30;99.90
23100;DHT22;53791;50.696;4.396;2023-06-26T13:51:47;24.40;99.90
23100;DHT22;53791;50.696;4.396;2023-06-26T13:54:15;24.60;99.90
23100;DHT22;53791;50.696;4.396;2023-06-26T13:56:42;24.60;99.90
23100;DHT22;53791;50.696;4.396;2023-06-26T13:59:10;24.40;99.90
23100;DHT22;53791;50.696;4.396;2023-06-26T14:01:39;24.60;99.90
23100;DHT22;53791;50.696;4.396;2023-06-26T14:04:09;24.70;99.90
23100;DHT22;53791;50.696;4.396;2023-06-26T14:06:36;24.50;99.90
23100;DHT22;53791;50.696;4.396;2023-06-26T14:09:04;24.60;99.90
23100;DHT22;53791;50.696;4.396;2023-06-26T14:11:31;24.20;99.90
23100;DHT22;53791;50.696;4.396;2023-06-26T14:14:00;24.10;99.90
23100;DHT22;53791;50.696;4.396;2023-06-26T14:16:28;23.90;99.90
23100;DHT22;53791;50.696;4.396;2023-06-26T14:18:56;24.00;99.90
23100;DHT22;53791;50.696;4.396;2023-06-26T14:21:24;24.00;99.90
23100;DHT22;53791;50.696;4.396;2023-06-26T14:23:51;24.00;99.90
23100;DHT22;53791;50.696;4.396;2023-06-26T14:26:19;24.10;99.90
23100;DHT22;53791;50.696;4.396;2023-06-26T14:28:46;24.00;99.90
23100;DHT22;53791;50.696;4.396;2023-06-26T14:31:14;23.70;99.90
23100;DHT22;53791;50.696;4.396;2023-06-26T14:33:41;23.60;99.90
23100;DHT22;53791;50.696;4.396;2023-06-26T14:36:09;23.60;99.90
23100;DHT22;53791;50.696;4.396;2023-06-26T14:38:37;23.70;99.90
23100;DHT22;53791;50.696;4.396;2023-06-26T14:41:04;23.90;99.90
23100;DHT22;53791;50.696;4.396;2023-06-26T14:43:32;23.80;99.90
23100;DHT22;53791;50.696;4.396;2023-06-26T14:45:59;23.60;99.90
23100;DHT22;53791;50.696;4.396;2023-06-26T14:48:27;23.60;99.90
23100;DHT22;53791;50.696;4.396;2023-06-26T14:50:54;23.80;99.90
23100;DHT22;53791;50.696;4.396;2023-06-26T14:53:22;24.00;99.90
23100;DHT22;53791;50.696;4.396;2023-06-26T14:55:49;23.90;99.90
23100;DHT22;53791;50.696;4.396;2023-06-26T14:58:17;23.80;99.90
23100;DHT22;53791;50.696;4.396;2023-06-26T15:00:44;23.80;99.90
23100;DHT22;53791;50.696;4.396;2023-06-26T15:03:12;23.60;99.90
23100;DHT22;53791;50.696;4.396;2023-06-26T15:05:39;23.60;99.90
23100;DHT22;53791;50.696;4.396;2023-06-26T15:08:07;23.70;99.90
23100;DHT22;53791;50.696;4.396;2023-06-26T15:10:36;23.60;99.90
23100;DHT22;53791;50.696;4.396;2023-06-26T15:13:03;23.40;99.90
23100;DHT22;53791;50.696;4.396;2023-06-26T15:15:31;23.20;99.90
23100;DHT22;53791;50.696;4.396;2023-06-26T15:18:00;23.30;99.90
23100;DHT22;53791;50.696;4.396;2023-06-26T15:20:27;23.30;99.90
23100;DHT22;53791;50.696;4.396;2023-06-26T15:22:55;23.20;99.90
23100;DHT22;53791;50.696;4.396;2023-06-26T15:25:24;23.10;99.90
23100;DHT22;53791;50.696;4.396;2023-06-26T15:27:52;23.10;99.90
23100;DHT22;53791;50.696;4.396;2023-06-26T15:30:19;23.10;99.90
23100;DHT22;53791;50.696;4.396;2023-06-26T15:32:47;23.10;99.90
23100;DHT22;53791;50.696;4.396;2023-06-26T15:35:14;23.00;99.90
23100;DHT22;53791;50.696;4.396;2023-06-26T15:37:42;22.80;99.90
23100;DHT22;53791;50.696;4.396;2023-06-26T15:40:09;22.70;99.90
23100;DHT22;53791;50.696;4.396;2023-06-26T15:42:45;22.80;99.90